Time;durP1;ratioP1;P1;durP2;ratioP2;P2;SDS_P1;SDS_P2;PMS_P1;PMS_P2;Temp;Humidity;BMP_temperature;BMP_pressure;BME280_temperature;BME280_humidity;BME280_pressure;Samples;Min_cycle;Max_cycle;Signal;HPM_P1;HPM_P2
2022/05/24 00:00:33;;;;;;;18.13;12.77;;;;;;;13.52;100.00;99836.41;5049592;28;20507;-57
2022/05/24 00:03:00;;;;;;;14.95;12.48;;;;;;;13.50;100.00;99836.50;5066496;28;20037;-56
2022/05/24 00:05:28;;;;;;;17.90;12.70;;;;;;;13.85;100.00;99895.19;5063239;28;20032;-59
2022/05/24 00:07:53;;;;;;;17.02;12.32;;;;;;;13.53;100.00;99830.19;5053741;28;20100;-58
2022/05/24 00:10:30;;;;;;;14.80;11.65;;;;;;;13.81;100.00;99887.53;5064704;28;20132;-53
2022/05/24 00:12:56;;;;;;;18.65;12.48;;;;;;;13.79;100.00;99884.13;5057210;28;20040;-59
2022/05/24 00:15:30;;;;;;;16.08;12.13;;;;;;;13.80;100.00;99884.06;5051846;28;20021;-59
2022/05/24 00:18:13;;;;;;;18.58;11.82;;;;;;;13.61;100.00;99843.78;5060822;28;20025;-59
2022/05/24 00:20:52;;;;;;;15.63;11.23;;;;;;;13.51;100.00;99826.78;5063743;28;20035;-59
2022/05/24 00:23:19;;;;;;;16.05;10.75;;;;;;;13.53;100.00;99827.53;5053131;28;20052;-59
2022/05/24 00:25:52;;;;;;;14.90;9.48;;;;;;;13.85;100.00;99884.63;5059249;28;20597;-58
2022/05/24 00:28:18;;;;;;;17.75;8.43;;;;;;;13.73;100.00;99869.50;5062116;28;20076;-57
2022/05/24 00:30:45;;;;;;;18.95;8.88;;;;;;;13.84;100.00;99892.63;5049717;28;20097;-54
2022/05/24 00:33:11;;;;;;;16.45;7.53;;;;;;;13.47;100.00;99827.91;5056228;28;20044;-60
2022/05/24 00:35:36;;;;;;;11.10;6.93;;;;;;;13.46;100.00;99839.41;5067561;28;20029;-54
2022/05/24 00:38:02;;;;;;;18.02;7.20;;;;;;;13.74;100.00;99892.34;5043520;28;20395;-61
2022/05/24 00:40:45;;;;;;;15.10;7.10;;;;;;;13.74;100.00;99889.72;5042606;28;20480;-59
2022/05/24 00:43:28;;;;;;;19.23;6.35;;;;;;;13.69;100.00;99880.34;5069164;28;20402;-57
2022/05/24 00:45:56;;;;;;;19.83;7.75;;;;;;;13.67;100.00;99861.91;5060081;28;20460;-58
2022/05/24 00:48:26;;;;;;;17.55;6.43;;;;;;;13.36;100.00;99817.13;5060843;28;20048;-54
2022/05/24 00:50:52;;;;;;;17.00;6.93;;;;;;;13.57;100.00;99852.84;5050099;28;20348;-60
2022/05/24 00:53:49;;;;;;;22.85;7.45;;;;;;;13.47;100.00;99849.06;5055620;28;20040;-54
2022/05/24 00:56:18;;;;;;;18.73;8.68;;;;;;;13.46;100.00;99844.69;5068045;28;20127;-58
2022/05/24 00:58:53;;;;;;;19.60;9.63;;;;;;;13.14;100.00;99817.53;5040018;28;20028;-57
2022/05/24 01:01:39;;;;;;;19.02;10.68;;;;;;;13.13;100.00;99825.56;5050962;28;20051;-57
2022/05/24 01:04:07;;;;;;;22.00;12.23;;;;;;;13.39;100.00;99886.53;5043592;28;20070;-57
2022/05/24 01:06:33;;;;;;;21.45;12.05;;;;;;;13.15;100.00;99840.38;5041331;28;20112;-61
2022/05/24 01:09:02;;;;;;;19.92;10.80;;;;;;;13.28;100.00;99851.09;5050567;28;20171;-61
2022/05/24 01:11:30;;;;;;;19.10;11.45;;;;;;;13.27;100.00;99833.53;5055951;28;20447;-58
2022/05/24 01:13:57;;;;;;;22.05;11.95;;;;;;;13.34;100.00;99851.56;5046441;28;20025;-62
2022/05/24 01:16:22;;;;;;;22.92;12.38;;;;;;;13.49;100.00;99879.75;5063267;28;20025;-58
2022/05/24 01:18:48;;;;;;;18.90;11.82;;;;;;;13.24;100.00;99839.84;5038782;28;20048;-60
2022/05/24 01:21:14;;;;;;;27.73;11.82;;;;;;;13.45;100.00;99866.81;5067758;28;20037;-57
2022/05/24 01:23:46;;;;;;;19.85;11.75;;;;;;;13.53;100.00;99901.56;5039470;28;20030;-59
2022/05/24 01:26:18;;;;;;;23.58;12.27;;;;;;;13.51;100.00;99899.00;5043760;28;20040;-57
2022/05/24 01:28:50;;;;;;;17.45;10.73;;;;;;;13.40;100.00;99872.34;5066213;28;20489;-58
2022/05/24 01:31:17;;;;;;;21.15;11.93;;;;;;;13.13;100.00;99837.00;5037277;28;20028;-58
2022/05/24 01:36:29;;;;;;;15.35;10.48;;;;;;;13.10;100.00;99834.53;5063334;28;20510;-60
2022/05/24 01:39:00;;;;;;;20.17;10.70;;;;;;;13.31;100.00;99874.69;5037743;28;20032;-57
2022/05/24 01:41:30;;;;;;;21.25;11.57;;;;;;;13.08;100.00;99838.16;5055440;28;20056;-59
2022/05/24 01:43:56;;;;;;;17.00;10.90;;;;;;;13.39;100.00;99893.59;5063676;28;20021;-62
2022/05/24 01:46:26;;;;;;;19.50;10.88;;;;;;;13.07;100.00;99844.38;5045046;28;20056;-58
2022/05/24 01:48:54;;;;;;;21.27;11.73;;;;;;;13.03;100.00;99827.84;5052524;28;20083;-59
2022/05/24 01:51:25;;;;;;;17.50;10.82;;;;;;;13.00;100.00;99820.09;5088273;28;20045;-58
2022/05/24 01:53:56;;;;;;;21.23;11.48;;;;;;;13.32;100.00;99876.38;5060650;28;20057;-60
2022/05/24 01:56:54;;;;;;;15.95;10.77;;;;;;;13.01;100.00;99810.41;5088100;28;20532;-59
2022/05/24 01:59:20;;;;;;;18.30;11.57;;;;;;;13.33;100.00;99880.75;5016345;28;20050;-60
2022/05/24 02:01:48;;;;;;;20.10;11.27;;;;;;;12.93;100.00;99816.97;5078074;28;20110;-59
2022/05/24 02:04:14;;;;;;;24.65;12.25;;;;;;;13.29;100.00;99871.28;5079858;28;20044;-60
2022/05/24 02:06:40;;;;;;;21.52;12.60;;;;;;;12.94;100.00;99818.69;5085537;28;20126;-59
2022/05/24 02:09:07;;;;;;;21.90;12.23;;;;;;;12.96;100.00;99822.06;5074807;28;20120;-58
2022/05/24 02:11:33;;;;;;;18.98;12.68;;;;;;;13.27;100.00;99887.25;5087245;28;20124;-57
2022/05/24 02:14:21;;;;;;;20.23;11.88;;;;;;;12.96;100.00;99831.78;5078235;28;20032;-58
2022/05/24 02:17:00;;;;;;;25.92;13.23;;;;;;;13.29;100.00;99884.50;5076524;28;20020;-59
2022/05/24 02:19:27;;;;;;;25.60;13.13;;;;;;;12.94;100.00;99816.03;5070471;28;20040;-60
2022/05/24 02:21:57;;;;;;;21.48;13.30;;;;;;;12.92;100.00;99814.44;5077364;28;20036;-57
2022/05/24 02:24:24;;;;;;;17.92;13.80;;;;;;;13.02;100.00;99834.06;5078377;28;20372;-57
2022/05/24 02:26:50;;;;;;;23.05;14.20;;;;;;;12.93;100.00;99816.09;5068662;28;20170;-60
2022/05/24 02:29:17;;;;;;;19.90;13.57;;;;;;;13.28;100.00;99873.06;5072321;28;20054;-59
2022/05/24 02:31:43;;;;;;;19.92;14.10;;;;;;;13.22;100.00;99852.28;5085157;28;20468;-60
2022/05/24 02:34:09;;;;;;;24.48;14.07;;;;;;;13.28;100.00;99859.84;5079465;28;20043;-62
2022/05/24 02:36:34;;;;;;;24.17;13.32;;;;;;;12.98;100.00;99803.50;5077980;28;20037;-59
2022/05/24 02:39:00;;;;;;;25.27;14.77;;;;;;;13.31;100.00;99870.25;5087584;28;20044;-59
2022/05/24 02:41:31;;;;;;;24.52;15.85;;;;;;;13.29;100.00;99858.06;5073555;28;20502;-58
2022/05/24 02:44:08;;;;;;;17.38;14.57;;;;;;;13.30;100.00;99857.13;5083170;28;20035;-59
2022/05/24 02:46:35;;;;;;;28.38;16.02;;;;;;;13.22;100.00;99846.16;5084140;28;20065;-59
2022/05/24 02:49:01;;;;;;;25.90;15.73;;;;;;;13.20;100.00;99854.16;5069114;28;20057;-62
2022/05/24 02:51:26;;;;;;;21.00;15.10;;;;;;;13.26;100.00;99864.38;5052718;28;20077;-59
2022/05/24 02:53:52;;;;;;;23.10;14.35;;;;;;;13.28;100.00;99869.59;5043873;28;20032;-56
2022/05/24 02:56:18;;;;;;;23.13;13.98;;;;;;;13.27;100.00;99867.88;5071084;28;20032;-60
2022/05/24 02:58:43;;;;;;;23.60;13.00;;;;;;;12.90;100.00;99816.31;5042366;28;20033;-60
2022/05/24 03:01:18;;;;;;;21.42;12.45;;;;;;;13.16;100.00;99868.53;5053058;28;20090;-61
2022/05/24 03:03:43;;;;;;;27.15;13.50;;;;;;;13.17;100.00;99874.63;5060617;28;20031;-59
2022/05/24 03:06:08;;;;;;;20.77;11.48;;;;;;;12.81;100.00;99820.31;5064512;28;20411;-60
2022/05/24 03:11:18;;;;;;;17.90;9.48;;;;;;;12.78;100.00;99824.94;5057716;28;20048;-61
2022/05/24 03:16:27;;;;;;;18.17;8.65;;;;;;;13.07;100.00;99881.38;5037222;28;20043;-59
2022/05/24 03:18:52;;;;;;;21.48;7.93;;;;;;;13.05;100.00;99878.81;5058390;28;20396;-60
2022/05/24 03:21:18;;;;;;;15.00;6.65;;;;;;;12.88;100.00;99849.88;5070840;28;20044;-60
2022/05/24 03:23:43;;;;;;;16.30;6.00;;;;;;;12.80;100.00;99833.63;5060237;28;20035;-56
2022/05/24 03:26:08;;;;;;;14.35;4.85;;;;;;;13.10;100.00;99883.88;5064084;28;20021;-59
2022/05/24 03:28:34;;;;;;;15.38;5.38;;;;;;;13.10;100.00;99878.59;5067291;28;20033;-55
2022/05/24 03:31:03;;;;;;;15.32;4.68;;;;;;;13.17;100.00;99899.28;5057078;28;20415;-56
2022/05/24 03:33:28;;;;;;;13.35;4.13;;;;;;;12.65;100.00;99811.56;5069855;28;20020;-58
2022/05/24 03:35:54;;;;;;;17.02;4.38;;;;;;;13.13;100.00;99904.84;5061506;28;20043;-58
2022/05/24 03:38:19;;;;;;;12.82;4.10;;;;;;;12.71;100.00;99850.84;5062736;28;20033;-60
2022/05/24 03:40:44;;;;;;;12.63;4.32;;;;;;;12.98;100.00;99901.25;5068357;28;20045;-60
2022/05/24 03:43:12;;;;;;;11.05;3.30;;;;;;;12.66;100.00;99850.25;5039076;28;20395;-59
2022/05/24 03:45:37;;;;;;;9.30;3.83;;;;;;;12.91;100.00;99916.59;5050348;28;20082;-60
2022/05/24 03:48:02;;;;;;;13.50;3.33;;;;;;;12.86;100.00;99923.91;5062319;28;20032;-59
2022/05/24 03:50:28;;;;;;;10.77;3.67;;;;;;;12.80;100.00;99929.53;5061714;28;20318;-58
2022/05/24 03:52:53;;;;;;;10.98;3.15;;;;;;;12.77;100.00;99929.72;5069629;28;20245;-61
2022/05/24 03:55:19;;;;;;;10.93;3.20;;;;;;;12.39;100.00;99867.63;5057002;28;20044;-61
2022/05/24 03:58:00;;;;;;;10.98;3.75;;;;;;;12.45;100.00;99898.09;5066893;28;20037;-60
2022/05/24 04:00:35;;;;;;;12.02;3.03;;;;;;;12.73;100.00;99970.41;5049844;28;20074;-61
2022/05/24 04:03:01;;;;;;;16.27;4.25;;;;;;;12.65;100.00;99946.22;5056935;28;20050;-57
2022/05/24 04:05:27;;;;;;;16.10;3.70;;;;;;;12.69;100.00;99953.06;5069589;28;20341;-58
2022/05/24 04:07:53;;;;;;;14.13;3.60;;;;;;;12.69;100.00;99955.69;5060836;28;20036;-60
2022/05/24 04:10:19;;;;;;;19.00;3.42;;;;;;;12.64;100.00;99949.78;5062346;28;20041;-61
2022/05/24 04:12:45;;;;;;;15.82;3.45;;;;;;;12.76;100.00;99964.97;5049918;28;20448;-60
2022/05/24 04:15:11;;;;;;;10.95;3.00;;;;;;;12.76;100.00;99959.69;5039082;28;20037;-60
2022/05/24 04:17:37;;;;;;;11.10;3.28;;;;;;;12.50;100.00;99896.91;5067998;28;20037;-58
2022/05/24 04:20:03;;;;;;;10.10;2.90;;;;;;;12.83;100.00;99949.63;5061707;28;20035;-60
2022/05/24 04:22:28;;;;;;;9.15;3.17;;;;;;;12.80;100.00;99936.59;5060561;28;20037;-59
2022/05/24 04:24:54;;;;;;;7.95;2.28;;;;;;;12.89;100.00;99952.81;5050756;28;20505;-56
2022/05/24 04:27:19;;;;;;;10.20;2.75;;;;;;;12.87;100.00;99967.84;5056268;28;20440;-61
2022/05/24 04:29:44;;;;;;;14.77;2.90;;;;;;;12.91;100.00;99960.63;5066826;28;20041;-57
2022/05/24 04:32:10;;;;;;;6.93;2.33;;;;;;;12.68;100.00;99919.66;5062477;28;20028;-61
2022/05/24 04:34:36;;;;;;;11.18;3.00;;;;;;;12.61;100.00;99899.81;5041547;28;20116;-57
2022/05/24 04:37:02;;;;;;;10.10;2.13;;;;;;;12.95;100.00;99955.09;5051155;28;20033;-60
2022/05/24 04:39:27;;;;;;;5.65;1.95;;;;;;;12.70;100.00;99909.00;5022157;28;20044;-59
2022/05/24 04:44:37;;;;;;;9.77;2.60;;;;;;;12.83;100.00;99942.56;5051311;28;20510;-57
2022/05/24 04:47:09;;;;;;;11.05;2.40;;;;;;;12.99;100.00;99961.03;5037896;28;20032;-61
2022/05/24 04:49:40;;;;;;;9.80;2.10;;;;;;;12.98;100.00;99954.06;5067829;28;20492;-60
2022/05/24 04:52:07;;;;;;;10.27;2.28;;;;;;;12.97;100.00;99947.06;5043774;28;20406;-61
2022/05/24 04:54:32;;;;;;;9.13;2.72;;;;;;;12.78;100.00;99898.88;5059454;28;20056;-58
2022/05/24 04:56:58;;;;;;;7.60;2.42;;;;;;;12.75;100.00;99901.69;5068817;28;20071;-61
2022/05/24 04:59:24;;;;;;;12.38;2.58;;;;;;;13.11;100.00;99960.38;5037990;28;20028;-59
2022/05/24 05:01:52;;;;;;;8.98;3.35;;;;;;;13.16;100.00;99978.66;5065409;28;20109;-56
2022/05/24 05:04:18;;;;;;;11.80;4.88;;;;;;;13.09;100.00;99966.69;5045433;28;20419;-58
2022/05/24 05:06:44;;;;;;;9.00;4.15;;;;;;;13.07;100.00;99977.34;5039883;28;20123;-55
2022/05/24 05:09:11;;;;;;;13.98;5.35;;;;;;;12.83;100.00;99939.94;5050704;28;20484;-58
2022/05/24 05:11:37;;;;;;;9.23;6.15;;;;;;;12.78;100.00;99946.41;5056640;28;20055;-59
2022/05/24 05:14:03;;;;;;;11.90;6.18;;;;;;;12.81;100.00;99967.38;5045226;28;20060;-60
2022/05/24 05:16:28;;;;;;;16.73;6.68;;;;;;;12.71;100.00;99971.44;5064201;28;20137;-58
2022/05/24 05:18:53;;;;;;;11.68;6.15;;;;;;;12.44;100.00;99942.09;5056200;28;20040;-57
2022/05/24 05:21:19;;;;;;;10.48;5.82;;;;;;;12.70;100.00;100001.41;5068350;28;20539;-58
2022/05/24 05:23:44;;;;;;;14.15;5.88;;;;;;;12.68;100.00;99996.22;5058284;28;20521;-58
2022/05/24 05:26:10;;;;;;;10.60;4.95;;;;;;;12.67;100.00;100017.41;5061927;28;20025;-61
2022/05/24 05:28:35;;;;;;;11.02;5.18;;;;;;;12.63;100.00;100002.69;5065443;28;20169;-57
2022/05/24 05:33:47;;;;;;;10.52;5.07;;;;;;;12.54;100.00;100000.53;5065414;28;20079;-60
2022/05/24 05:36:13;;;;;;;10.68;5.13;;;;;;;12.31;100.00;99956.91;5061759;28;20368;-60
2022/05/24 05:38:45;;;;;;;11.57;5.45;;;;;;;12.20;100.00;99941.63;5057844;28;20093;-56
2022/05/24 05:41:11;;;;;;;8.30;4.45;;;;;;;12.27;100.00;99958.00;5068264;28;20032;-58
2022/05/24 05:43:36;;;;;;;11.77;5.35;;;;;;;12.28;100.00;99984.31;5055981;28;20114;-58
2022/05/24 05:46:03;;;;;;;8.60;6.10;;;;;;;12.23;100.00;99986.31;5062554;28;20091;-58
2022/05/24 05:48:29;;;;;;;12.95;7.05;;;;;;;12.49;100.00;100044.81;5062955;28;20064;-60
2022/05/24 05:50:55;;;;;;;11.88;6.90;;;;;;;12.58;100.00;100037.25;5037508;28;20025;-59
2022/05/24 05:53:20;;;;;;;9.18;7.15;;;;;;;12.97;100.00;100050.97;5033414;28;20025;-60
2022/05/24 05:55:49;;;;;;;10.73;7.32;;;;;;;13.28;100.00;100042.22;5057803;28;20066;-57
2022/05/24 05:58:14;;;;;;;11.10;7.68;;;;;;;13.70;100.00;100064.53;5061191;28;20044;-59
2022/05/24 06:00:41;;;;;;;9.45;7.70;;;;;;;13.86;100.00;100055.63;5065076;28;20032;-57
2022/05/24 06:03:07;;;;;;;14.23;7.82;;;;;;;13.89;100.00;100057.25;5036589;28;20029;-58
2022/05/24 06:05:34;;;;;;;13.23;8.35;;;;;;;13.90;100.00;100070.38;5051768;28;20105;-58
2022/05/24 06:08:03;;;;;;;11.95;7.97;;;;;;;13.78;100.00;100083.44;5059031;28;20028;-58
2022/05/24 06:10:29;;;;;;;11.85;7.88;;;;;;;13.49;100.00;100071.88;5056885;28;20399;-59
2022/05/24 06:12:57;;;;;;;9.77;7.80;;;;;;;13.05;100.00;100031.22;5065455;28;20039;-60
2022/05/24 06:15:25;;;;;;;11.63;8.55;;;;;;;13.28;100.00;100083.66;5053130;28;20542;-59
2022/05/24 06:17:51;;;;;;;13.88;8.02;;;;;;;12.80;100.00;100027.25;5063733;28;20052;-60
2022/05/24 06:20:18;;;;;;;10.30;7.85;;;;;;;13.06;100.00;100083.09;5027436;28;20496;-58
2022/05/24 06:22:44;;;;;;;11.05;8.30;;;;;;;12.94;100.00;100090.75;5060033;28;20071;-57
2022/05/24 06:25:09;;;;;;;9.13;7.45;;;;;;;12.90;100.00;100083.09;5071782;28;20056;-60
2022/05/24 06:27:35;;;;;;;9.93;8.48;;;;;;;12.80;100.00;100092.41;5060180;28;20020;-59
2022/05/24 06:30:00;;;;;;;11.88;9.25;;;;;;;12.69;100.00;100093.00;5048788;28;20025;-60
2022/05/24 06:32:25;;;;;;;15.75;9.55;;;;;;;12.20;100.00;100041.06;5049221;28;20033;-59
2022/05/24 06:34:53;;;;;;;13.27;9.60;;;;;;;12.03;100.00;100041.03;5059829;28;20029;-56
2022/05/24 06:37:19;;;;;;;18.00;9.77;;;;;;;12.32;100.00;100095.81;5054294;28;20061;-56
2022/05/24 06:39:46;;;;;;;17.20;9.90;;;;;;;12.20;100.00;100099.94;5043619;28;20025;-58
2022/05/24 06:42:11;;;;;;;14.15;10.20;;;;;;;11.82;100.00;100032.47;5065255;28;20067;-58
2022/05/24 06:44:36;;;;;;;14.18;8.35;;;;;;;12.13;100.00;100093.28;5068485;28;20056;-56
2022/05/24 06:47:05;;;;;;;14.82;8.95;;;;;;;11.80;100.00;100050.13;5058610;28;20029;-59
2022/05/24 06:49:30;;;;;;;10.48;8.18;;;;;;;11.92;100.00;100080.28;5073929;28;20113;-60
2022/05/24 06:51:56;;;;;;;11.52;8.45;;;;;;;12.01;100.00;100085.97;5081466;28;20483;-62
2022/05/24 06:54:21;;;;;;;15.80;9.20;;;;;;;12.08;100.00;100100.56;5083604;28;20543;-62
2022/05/24 06:56:46;;;;;;;11.68;7.57;;;;;;;12.12;100.00;100107.38;5089649;28;20035;-62
2022/05/24 07:04:40;;;;;;;8.02;4.90;;;;;;;12.17;100.00;100101.91;5087516;28;20139;-61
2022/05/24 07:07:05;;;;;;;4.97;4.18;;;;;;;12.04;100.00;100090.25;5077887;28;20111;-64
2022/05/24 07:09:31;;;;;;;6.38;4.40;;;;;;;12.06;100.00;100110.34;5090309;28;20024;-61
2022/05/24 07:12:01;;;;;;;5.53;4.80;;;;;;;12.16;100.00;100101.03;5082250;28;20460;-62
2022/05/24 07:14:26;;;;;;;10.20;5.25;;;;;;;12.41;100.00;100119.97;5081202;28;20483;-62
2022/05/24 07:16:51;;;;;;;8.27;4.70;;;;;;;12.60;100.00;100143.66;5089912;28;20032;-63
2022/05/24 07:19:18;;;;;;;9.90;4.82;;;;;;;12.61;100.00;100115.47;5076315;28;20048;-62
2022/05/24 07:21:44;;;;;;;10.48;5.03;;;;;;;12.36;100.00;100061.28;5088228;28;20028;-62
2022/05/24 07:24:09;;;;;;;6.32;5.00;;;;;;;12.66;100.00;100140.69;5082557;28;20024;-63
2022/05/24 07:26:35;;;;;;;8.75;4.32;;;;;;;12.48;100.00;100128.44;5079774;28;20069;-64
2022/05/24 07:29:01;;;;;;;6.75;4.30;;;;;;;12.16;100.00;100084.34;5090767;28;20036;-63
2022/05/24 07:31:27;;;;;;;4.13;3.38;;;;;;;12.05;100.00;100091.97;5077908;28;20028;-62
2022/05/24 07:33:52;;;;;;;7.97;4.10;;;;;;;12.25;100.00;100152.50;5084588;28;20112;-64
2022/05/24 07:36:18;;;;;;;4.10;3.30;;;;;;;12.13;100.00;100153.09;5084902;28;20114;-61
2022/05/24 07:38:43;;;;;;;9.38;3.53;;;;;;;12.09;100.00;100146.25;5077965;28;20050;-62
2022/05/24 07:46:36;;;;;;;3.97;2.70;;;;;;;11.60;100.00;100116.97;5079770;28;20052;-62
2022/05/24 07:49:02;;;;;;;3.22;2.90;;;;;;;11.99;100.00;100159.06;5081824;28;20065;-62
2022/05/24 07:51:27;;;;;;;7.35;2.80;;;;;;;12.16;100.00;100182.81;5039507;28;20420;-62
2022/05/24 07:53:53;;;;;;;4.72;2.33;;;;;;;12.46;100.00;100163.75;5048283;28;20035;-63
2022/05/24 07:56:19;;;;;;;4.57;2.95;;;;;;;13.03;100.00;100179.22;5064457;28;20033;-64
2022/05/24 07:58:45;;;;;;;4.47;2.22;;;;;;;13.79;100.00;100156.56;5059033;28;20116;-63
2022/05/24 08:01:11;;;;;;;10.98;1.77;;;;;;;14.46;100.00;100178.25;5052050;28;20036;-61
2022/05/24 08:03:38;;;;;;;3.67;1.90;;;;;;;14.75;100.00;100175.69;5058670;28;20032;-62
2022/05/24 08:06:05;;;;;;;3.90;1.75;;;;;;;14.67;100.00;100185.88;5064426;28;20442;-63
2022/05/24 08:08:30;;;;;;;4.10;1.98;;;;;;;14.23;100.00;100141.66;5066227;28;20047;-63
2022/05/24 08:10:56;;;;;;;3.70;1.88;;;;;;;14.57;100.00;100206.75;5057401;28;20037;-63
2022/05/24 08:13:22;;;;;;;7.28;2.97;;;;;;;14.47;100.00;100210.91;5051967;28;20116;-62
2022/05/24 08:15:52;;;;;;;4.20;2.10;;;;;;;14.12;100.00;100212.03;5059968;28;20031;-63
2022/05/24 08:18:18;;;;;;;2.20;1.60;;;;;;;13.67;100.00;100200.44;5044403;28;20032;-62
2022/05/24 08:20:43;;;;;;;4.40;1.50;;;;;;;13.34;100.00;100181.97;5049460;28;20032;-62
2022/05/24 08:23:08;;;;;;;4.20;1.33;;;;;;;13.28;100.00;100219.28;5038801;28;20037;-63
2022/05/24 08:25:34;;;;;;;4.07;1.60;;;;;;;12.91;100.00;100182.50;5068343;28;20036;-63
2022/05/24 08:28:02;;;;;;;2.45;1.65;;;;;;;13.13;100.00;100220.13;5061221;28;20479;-62
2022/05/24 08:30:28;;;;;;;3.88;2.10;;;;;;;12.89;100.00;100203.72;5034052;28;20033;-62
2022/05/24 08:32:56;;;;;;;2.20;1.75;;;;;;;12.98;100.00;100236.75;5052973;28;20029;-61
2022/05/24 08:35:21;;;;;;;3.70;2.03;;;;;;;12.94;100.00;100245.75;5052694;28;20039;-62
2022/05/24 08:37:47;;;;;;;4.82;2.35;;;;;;;12.78;100.00;100184.09;5053039;28;20025;-61
2022/05/24 08:40:16;;;;;;;6.28;2.70;;;;;;;13.50;100.00;100240.16;5053086;28;20048;-62
2022/05/24 08:42:47;;;;;;;4.10;2.88;;;;;;;13.96;100.00;100233.19;5053234;28;20037;-62
2022/05/24 08:50:46;;;;;;;2.88;2.67;;;;;;;16.01;100.00;100190.72;5050035;28;20511;-63
2022/05/24 08:53:17;;;;;;;5.65;2.20;;;;;;;16.83;100.00;100268.50;5050272;28;20230;-61
2022/05/24 08:55:43;;;;;;;4.68;2.35;;;;;;;16.58;100.00;100302.13;5037374;28;20467;-62
2022/05/24 08:58:27;;;;;;;5.05;2.30;;;;;;;16.07;100.00;100306.28;5054142;28;20483;-62
2022/05/24 09:00:52;;;;;;;2.85;2.22;;;;;;;15.45;100.00;100262.38;5071858;28;20166;-62
2022/05/24 09:03:22;;;;;;;3.20;1.88;;;;;;;15.51;100.00;100304.47;5039197;28;20119;-61
2022/05/24 09:05:49;;;;;;;2.67;1.30;;;;;;;15.38;100.00;100322.88;5066727;28;20029;-61
2022/05/24 09:08:35;;;;;;;3.40;1.60;;;;;;;15.59;100.00;100305.72;5049406;28;20486;-62
2022/05/24 09:11:14;;;;;;;3.88;1.80;;;;;;;15.89;100.00;100299.47;5051879;28;20036;-61
2022/05/24 09:14:02;;;;;;;4.75;1.50;;;;;;;16.15;100.00;100331.38;5059720;28;20029;-61
2022/05/24 09:16:52;;;;;;;4.70;1.60;;;;;;;16.27;100.00;100322.66;5040189;28;20037;-62
2022/05/24 09:19:25;;;;;;;6.53;2.17;;;;;;;16.30;100.00;100330.41;5050819;28;20041;-61
2022/05/24 09:21:54;;;;;;;5.15;1.85;;;;;;;16.26;100.00;100330.69;5048098;28;20067;-60
2022/05/24 09:24:56;;;;;;;4.80;2.33;;;;;;;16.06;100.00;100336.41;5034421;28;20040;-61
2022/05/24 09:27:28;;;;;;;4.88;2.13;;;;;;;15.39;100.00;100302.53;5051434;28;20032;-61
2022/05/24 09:30:29;;;;;;;7.60;2.45;;;;;;;14.91;100.00;100354.03;5048253;28;20036;-62
2022/05/24 09:33:32;;;;;;;9.82;3.60;;;;;;;14.53;100.00;100362.38;5008829;28;20105;-62
2022/05/24 09:35:59;;;;;;;9.23;4.03;;;;;;;13.95;100.00;100363.81;5054129;28;20035;-62
2022/05/24 09:38:37;;;;;;;6.63;3.92;;;;;;;13.49;100.00;100354.78;5054159;28;20149;-62
2022/05/24 09:41:22;;;;;;;9.90;5.32;;;;;;;13.28;100.00;100353.25;5070694;28;20055;-62
2022/05/24 09:44:14;;;;;;;7.57;5.07;;;;;;;13.24;100.00;100363.13;5072073;28;20064;-61
2022/05/24 09:46:41;;;;;;;6.13;4.93;;;;;;;13.10;100.00;100331.28;5068505;28;20040;-61
2022/05/24 09:49:27;;;;;;;8.00;5.20;;;;;;;13.40;100.00;100358.75;5059515;28;20060;-62
2022/05/24 09:51:56;;;;;;;6.70;5.03;;;;;;;13.50;100.00;100348.56;5070801;28;20025;-64
2022/05/24 09:54:26;;;;;;;7.30;4.72;;;;;;;13.76;100.00;100371.00;5071895;28;20043;-63
2022/05/24 09:57:06;;;;;;;7.97;3.90;;;;;;;13.77;100.00;100389.44;5070310;28;20101;-63
2022/05/24 09:59:33;;;;;;;5.57;3.53;;;;;;;13.66;100.00;100325.66;5070696;28;20123;-61
2022/05/24 10:01:59;;;;;;;8.07;3.80;;;;;;;14.18;100.00;100381.94;5053896;28;20517;-62
2022/05/24 10:04:25;;;;;;;7.30;3.72;;;;;;;14.41;100.00;100405.41;5071853;28;20051;-63
2022/05/24 10:07:13;;;;;;;5.38;3.55;;;;;;;14.35;100.00;100347.50;5071261;28;20395;-62
2022/05/24 10:09:45;;;;;;;7.80;3.72;;;;;;;14.99;100.00;100405.66;5054375;28;20072;-64
2022/05/24 10:12:39;;;;;;;9.10;3.33;;;;;;;15.35;100.00;100410.63;5070516;28;20029;-62
2022/05/24 10:15:15;;;;;;;6.07;3.90;;;;;;;15.23;100.00;100363.59;5070401;28;20025;-62
2022/05/24 10:18:08;;;;;;;5.35;2.88;;;;;;;15.70;100.00;100435.91;5070650;28;20086;-62
2022/05/24 10:20:49;;;;;;;5.30;2.75;;;;;;;15.73;100.00;100373.88;5070386;28;20055;-62
2022/05/24 10:23:23;;;;;;;4.47;2.40;;;;;;;16.50;100.00;100439.84;5071025;28;20123;-64
2022/05/24 10:26:14;;;;;;;5.97;2.00;;;;;;;16.60;100.00;100417.97;5070390;28;20391;-62
2022/05/24 10:28:54;;;;;;;;;;;;;;;16.68;100.00;100449.34;5072091;28;20024;-62
2022/05/24 10:31:35;;;;;;;7.25;1.80;;;;;;;16.50;100.00;100455.78;5070157;28;19963;-62
2022/05/24 10:38:17;;;;;;;2.05;1.27;;;;;;;16.53;100.00;100491.00;5070242;28;20075;-61
2022/05/24 10:40:28;;;;;;;3.10;1.20;;;;;;;16.69;100.00;100475.00;5070988;28;20033;-63
2022/05/24 10:43:15;;;;;;;3.78;1.60;;;;;;;16.52;100.00;100468.03;5071350;28;20082;-63
2022/05/24 10:45:52;;;;;;;3.90;1.40;;;;;;;17.42;100.00;100476.41;5071098;28;20398;-62
2022/05/24 10:48:32;;;;;;;3.47;1.23;;;;;;;18.84;100.00;100484.28;5067598;28;20020;-63
2022/05/24 10:51:13;;;;;;;2.55;1.05;;;;;;;19.74;100.00;100466.00;5051384;28;20045;-61
2022/05/24 10:53:41;;;;;;;6.60;1.42;;;;;;;20.40;100.00;100515.25;5051226;28;20033;-62
2022/05/24 10:56:13;;;;;;;2.03;1.15;;;;;;;20.07;100.00;100507.97;5050806;28;20033;-64
2022/05/24 10:58:41;;;;;;;7.93;1.48;;;;;;;19.30;100.00;100512.00;5033144;28;20045;-63
2022/05/24 11:01:27;;;;;;;1.48;1.17;;;;;;;18.95;100.00;100503.91;5050726;28;20039;-63
2022/05/24 11:04:06;;;;;;;4.05;1.08;;;;;;;19.65;100.00;100488.03;5032990;28;20395;-63
2022/05/24 11:06:41;;;;;;;1.65;0.98;;;;;;;20.73;100.00;100512.56;5051144;28;20075;-63
2022/05/24 11:09:11;;;;;;;2.95;1.00;;;;;;;21.28;100.00;100519.72;5052780;28;20033;-64
2022/05/24 11:11:50;;;;;;;4.63;1.17;;;;;;;20.89;100.00;100528.25;5054691;28;20120;-64
2022/05/24 11:14:30;;;;;;;3.50;1.40;;;;;;;20.82;100.00;100521.69;5036826;28;20463;-64
2022/05/24 11:16:56;;;;;;;1.67;1.05;;;;;;;21.18;100.00;100532.16;5054697;28;20033;-64
2022/05/24 11:19:27;;;;;;;2.40;1.20;;;;;;;21.17;100.00;100523.25;5054438;28;20482;-62
2022/05/24 11:22:01;;;;;;;;;;;;;;;20.45;100.00;100535.31;5020397;28;20025;-62
2022/05/24 11:24:51;;;;;;;4.45;1.10;;;;;;;19.51;100.00;100537.13;5054753;28;19912;-63
2022/05/24 11:27:26;;;;;;;3.53;1.10;;;;;;;19.20;100.00;100537.66;5054440;28;20041;-64
2022/05/24 11:29:54;;;;;;;1.77;0.95;;;;;;;18.73;100.00;100526.88;5036472;28;20166;-63
2022/05/24 11:32:43;;;;;;;1.67;0.90;;;;;;;19.01;100.00;100527.47;5054125;28;20158;-63
2022/05/24 11:35:12;;;;;;;6.22;1.30;;;;;;;19.60;100.00;100525.78;5036369;28;20029;-63
2022/05/24 11:37:41;;;;;;;3.72;1.35;;;;;;;20.28;100.00;100554.47;5036292;28;20198;-62
2022/05/24 11:40:31;;;;;;;2.88;0.70;;;;;;;19.36;100.00;100521.38;5036245;28;20087;-63
2022/05/24 11:43:00;;;;;;;3.25;1.25;;;;;;;18.93;100.00;100550.31;5054122;28;20036;-63
2022/05/24 11:45:28;;;;;;;2.75;1.05;;;;;;;18.50;100.00;100568.47;5036165;28;20344;-64
2022/05/24 11:47:53;;;;;;;3.20;1.17;;;;;;;18.86;100.00;100560.56;5053991;28;20040;-64
2022/05/24 11:50:50;;;;;;;3.38;0.95;;;;;;;19.16;100.00;100570.00;5053711;28;20124;-66
2022/05/24 11:53:21;;;;;;;3.67;0.98;;;;;;;19.51;100.00;100563.84;5053716;28;20032;-61
2022/05/24 11:55:56;;;;;;;1.88;0.80;;;;;;;19.66;100.00;100567.19;5053920;28;20047;-61
2022/05/24 11:58:21;;;;;;;2.10;1.30;;;;;;;19.60;100.00;100565.84;5053825;28;20495;-62
2022/05/24 12:01:08;;;;;;;2.45;0.95;;;;;;;20.00;100.00;100520.09;5053778;28;20080;-60